sim
Sign-in with your pilot id or email,
or register
Callsign
Passwort

Schedule Details

Flight Number: DLH1829 (1)
Departure: Bilbao Airport (LEBB) at 05:50
Arrival: Munich Airport (EDDM) at 08:00
Route: Lufthansa Passenger Schedule. Enter filed route here before submitting Pirep.

Weather Information
Getting current METAR information for LEBB 262000Z 36012G25KT 290V060 3000 RA FEW007 SCT015 BKN020 16/16 Q1013 TEMPO 6000 NSW
Getting current METAR information for EDDM 261950Z 24017KT 9999 -RA BKN022 BKN035 07/04 Q1001 NOSIG

Schedule Frequency

Route Map